sensor_id;sensor_type;location;lat;lon;timestamp;P1;durP1;ratioP1;P2;durP2;ratioP2
44026;SDS011;29696;55.698;37.460;2023-04-24T00:01:07;19.00;;;9.53;;
44026;SDS011;29696;55.698;37.460;2023-04-24T00:03:34;19.30;;;9.43;;
44026;SDS011;29696;55.698;37.460;2023-04-24T00:06:01;27.43;;;10.83;;
44026;SDS011;29696;55.698;37.460;2023-04-24T00:08:28;19.47;;;9.70;;
44026;SDS011;29696;55.698;37.460;2023-04-24T00:10:54;25.20;;;9.43;;
44026;SDS011;29696;55.698;37.460;2023-04-24T00:13:21;24.60;;;10.23;;
44026;SDS011;29696;55.698;37.460;2023-04-24T00:15:47;26.27;;;10.00;;
44026;SDS011;29696;55.698;37.460;2023-04-24T00:18:14;25.87;;;10.53;;
44026;SDS011;29696;55.698;37.460;2023-04-24T00:20:40;20.83;;;9.40;;
44026;SDS011;29696;55.698;37.460;2023-04-24T00:23:06;20.03;;;10.20;;
44026;SDS011;29696;55.698;37.460;2023-04-24T00:25:33;19.23;;;10.37;;
44026;SDS011;29696;55.698;37.460;2023-04-24T00:27:59;22.37;;;10.13;;
44026;SDS011;29696;55.698;37.460;2023-04-24T00:30:26;19.63;;;9.93;;
44026;SDS011;29696;55.698;37.460;2023-04-24T00:32:52;15.17;;;8.53;;
44026;SDS011;29696;55.698;37.460;2023-04-24T00:35:19;19.57;;;10.13;;
44026;SDS011;29696;55.698;37.460;2023-04-24T00:37:45;22.47;;;9.63;;
44026;SDS011;29696;55.698;37.460;2023-04-24T00:40:12;12.83;;;8.90;;
44026;SDS011;29696;55.698;37.460;2023-04-24T00:42:39;23.37;;;10.87;;
44026;SDS011;29696;55.698;37.460;2023-04-24T00:45:06;23.67;;;9.70;;
44026;SDS011;29696;55.698;37.460;2023-04-24T00:47:33;14.80;;;8.17;;
44026;SDS011;29696;55.698;37.460;2023-04-24T00:50:03;18.00;;;8.90;;
44026;SDS011;29696;55.698;37.460;2023-04-24T00:52:32;17.27;;;9.77;;
44026;SDS011;29696;55.698;37.460;2023-04-24T00:54:59;16.13;;;10.27;;
44026;SDS011;29696;55.698;37.460;2023-04-24T00:57:26;22.77;;;10.67;;
44026;SDS011;29696;55.698;37.460;2023-04-24T00:59:53;22.03;;;10.83;;
44026;SDS011;29696;55.698;37.460;2023-04-24T01:02:20;20.93;;;10.83;;
44026;SDS011;29696;55.698;37.460;2023-04-24T01:04:49;14.57;;;9.83;;
44026;SDS011;29696;55.698;37.460;2023-04-24T01:07:20;18.57;;;9.63;;
44026;SDS011;29696;55.698;37.460;2023-04-24T01:09:47;17.17;;;9.90;;
44026;SDS011;29696;55.698;37.460;2023-04-24T01:12:19;16.13;;;9.23;;
44026;SDS011;29696;55.698;37.460;2023-04-24T01:14:45;15.73;;;9.07;;
44026;SDS011;29696;55.698;37.460;2023-04-24T01:17:12;20.73;;;9.20;;
44026;SDS011;29696;55.698;37.460;2023-04-24T01:19:38;16.30;;;9.37;;
44026;SDS011;29696;55.698;37.460;2023-04-24T01:22:23;23.37;;;10.43;;
44026;SDS011;29696;55.698;37.460;2023-04-24T01:24:50;18.65;;;9.02;;
44026;SDS011;29696;55.698;37.460;2023-04-24T01:27:18;18.57;;;8.33;;
44026;SDS011;29696;55.698;37.460;2023-04-24T01:29:45;18.67;;;9.70;;
44026;SDS011;29696;55.698;37.460;2023-04-24T01:32:15;20.73;;;10.77;;
44026;SDS011;29696;55.698;37.460;2023-04-24T01:34:41;13.93;;;9.13;;
44026;SDS011;29696;55.698;37.460;2023-04-24T01:37:08;23.23;;;10.07;;
44026;SDS011;29696;55.698;37.460;2023-04-24T01:39:35;14.37;;;9.97;;
44026;SDS011;29696;55.698;37.460;2023-04-24T01:42:02;27.43;;;11.03;;
44026;SDS011;29696;55.698;37.460;2023-04-24T01:44:28;19.50;;;9.43;;
44026;SDS011;29696;55.698;37.460;2023-04-24T01:46:55;19.00;;;10.43;;
44026;SDS011;29696;55.698;37.460;2023-04-24T01:49:23;17.03;;;10.73;;
44026;SDS011;29696;55.698;37.460;2023-04-24T01:51:50;30.43;;;12.10;;
44026;SDS011;29696;55.698;37.460;2023-04-24T01:54:16;18.13;;;9.93;;
44026;SDS011;29696;55.698;37.460;2023-04-24T01:56:43;16.50;;;9.50;;
44026;SDS011;29696;55.698;37.460;2023-04-24T01:59:10;20.07;;;10.97;;
44026;SDS011;29696;55.698;37.460;2023-04-24T02:01:38;20.03;;;10.27;;
44026;SDS011;29696;55.698;37.460;2023-04-24T02:04:05;18.97;;;10.87;;
44026;SDS011;29696;55.698;37.460;2023-04-24T02:06:35;23.97;;;10.00;;
44026;SDS011;29696;55.698;37.460;2023-04-24T02:09:02;22.33;;;10.50;;
44026;SDS011;29696;55.698;37.460;2023-04-24T02:11:29;21.07;;;10.77;;
44026;SDS011;29696;55.698;37.460;2023-04-24T02:13:57;21.60;;;10.80;;
44026;SDS011;29696;55.698;37.460;2023-04-24T02:16:24;17.07;;;11.13;;
44026;SDS011;29696;55.698;37.460;2023-04-24T02:18:50;16.10;;;9.90;;
44026;SDS011;29696;55.698;37.460;2023-04-24T02:21:17;16.10;;;10.07;;
44026;SDS011;29696;55.698;37.460;2023-04-24T02:23:44;19.60;;;9.57;;
44026;SDS011;29696;55.698;37.460;2023-04-24T02:26:12;16.63;;;8.53;;
44026;SDS011;29696;55.698;37.460;2023-04-24T02:28:39;15.93;;;9.47;;
44026;SDS011;29696;55.698;37.460;2023-04-24T02:31:06;20.93;;;10.13;;
44026;SDS011;29696;55.698;37.460;2023-04-24T02:33:32;23.43;;;10.10;;
44026;SDS011;29696;55.698;37.460;2023-04-24T02:35:59;19.53;;;9.77;;
44026;SDS011;29696;55.698;37.460;2023-04-24T02:38:25;14.60;;;10.30;;
44026;SDS011;29696;55.698;37.460;2023-04-24T02:40:52;13.83;;;9.57;;
44026;SDS011;29696;55.698;37.460;2023-04-24T02:43:18;19.50;;;11.37;;
44026;SDS011;29696;55.698;37.460;2023-04-24T02:45:45;11.80;;;8.40;;
44026;SDS011;29696;55.698;37.460;2023-04-24T02:48:11;14.00;;;10.80;;
44026;SDS011;29696;55.698;37.460;2023-04-24T02:50:38;17.83;;;9.73;;
44026;SDS011;29696;55.698;37.460;2023-04-24T02:53:04;14.90;;;9.63;;
44026;SDS011;29696;55.698;37.460;2023-04-24T02:55:31;12.97;;;9.67;;
44026;SDS011;29696;55.698;37.460;2023-04-24T02:57:57;15.17;;;9.33;;
44026;SDS011;29696;55.698;37.460;2023-04-24T03:00:24;17.13;;;9.20;;
44026;SDS011;29696;55.698;37.460;2023-04-24T03:02:51;17.60;;;9.00;;
44026;SDS011;29696;55.698;37.460;2023-04-24T03:05:17;18.83;;;9.90;;
44026;SDS011;29696;55.698;37.460;2023-04-24T03:07:44;16.83;;;9.87;;
44026;SDS011;29696;55.698;37.460;2023-04-24T03:10:11;20.87;;;8.63;;
44026;SDS011;29696;55.698;37.460;2023-04-24T03:12:37;13.67;;;8.97;;
44026;SDS011;29696;55.698;37.460;2023-04-24T03:15:04;13.60;;;8.03;;
44026;SDS011;29696;55.698;37.460;2023-04-24T03:17:32;14.77;;;7.53;;
44026;SDS011;29696;55.698;37.460;2023-04-24T03:19:58;13.23;;;11.13;;
44026;SDS011;29696;55.698;37.460;2023-04-24T03:22:25;19.10;;;9.93;;
44026;SDS011;29696;55.698;37.460;2023-04-24T03:24:52;14.23;;;10.63;;
44026;SDS011;29696;55.698;37.460;2023-04-24T03:27:20;13.33;;;9.17;;
44026;SDS011;29696;55.698;37.460;2023-04-24T03:30:09;18.17;;;11.43;;
44026;SDS011;29696;55.698;37.460;2023-04-24T03:32:45;15.97;;;10.90;;
44026;SDS011;29696;55.698;37.460;2023-04-24T03:35:14;15.68;;;9.82;;
44026;SDS011;29696;55.698;37.460;2023-04-24T03:37:41;13.57;;;9.18;;
44026;SDS011;29696;55.698;37.460;2023-04-24T03:40:40;17.52;;;9.27;;
44026;SDS011;29696;55.698;37.460;2023-04-24T03:43:18;17.77;;;9.93;;
44026;SDS011;29696;55.698;37.460;2023-04-24T03:45:45;14.35;;;9.50;;
44026;SDS011;29696;55.698;37.460;2023-04-24T03:48:13;15.95;;;9.23;;
44026;SDS011;29696;55.698;37.460;2023-04-24T03:50:39;13.38;;;8.75;;
44026;SDS011;29696;55.698;37.460;2023-04-24T03:53:09;15.23;;;10.13;;
44026;SDS011;29696;55.698;37.460;2023-04-24T03:55:39;28.20;;;9.63;;
44026;SDS011;29696;55.698;37.460;2023-04-24T03:58:05;14.10;;;9.32;;
44026;SDS011;29696;55.698;37.460;2023-04-24T04:00:32;17.50;;;8.85;;
44026;SDS011;29696;55.698;37.460;2023-04-24T04:03:19;14.57;;;7.85;;
44026;SDS011;29696;55.698;37.460;2023-04-24T04:05:47;16.52;;;9.90;;
44026;SDS011;29696;55.698;37.460;2023-04-24T04:08:13;13.18;;;8.60;;
44026;SDS011;29696;55.698;37.460;2023-04-24T04:10:40;15.50;;;8.68;;
44026;SDS011;29696;55.698;37.460;2023-04-24T04:13:06;10.02;;;8.43;;
44026;SDS011;29696;55.698;37.460;2023-04-24T04:15:34;11.30;;;8.02;;
44026;SDS011;29696;55.698;37.460;2023-04-24T04:18:01;13.80;;;8.32;;
44026;SDS011;29696;55.698;37.460;2023-04-24T04:20:29;27.88;;;9.57;;
44026;SDS011;29696;55.698;37.460;2023-04-24T04:22:55;11.32;;;7.97;;
44026;SDS011;29696;55.698;37.460;2023-04-24T04:25:32;15.23;;;8.77;;
44026;SDS011;29696;55.698;37.460;2023-04-24T04:27:59;15.95;;;9.02;;
44026;SDS011;29696;55.698;37.460;2023-04-24T04:30:25;19.83;;;8.73;;
44026;SDS011;29696;55.698;37.460;2023-04-24T04:32:58;14.00;;;9.23;;
44026;SDS011;29696;55.698;37.460;2023-04-24T04:35:25;11.88;;;7.78;;
44026;SDS011;29696;55.698;37.460;2023-04-24T04:37:53;24.63;;;8.35;;
44026;SDS011;29696;55.698;37.460;2023-04-24T04:40:40;18.20;;;8.18;;
44026;SDS011;29696;55.698;37.460;2023-04-24T04:43:07;11.60;;;7.85;;
44026;SDS011;29696;55.698;37.460;2023-04-24T04:45:43;12.23;;;6.90;;
44026;SDS011;29696;55.698;37.460;2023-04-24T04:48:30;12.15;;;6.55;;
44026;SDS011;29696;55.698;37.460;2023-04-24T04:50:59;11.73;;;8.27;;
44026;SDS011;29696;55.698;37.460;2023-04-24T04:53:27;12.48;;;8.27;;
44026;SDS011;29696;55.698;37.460;2023-04-24T04:55:53;30.13;;;7.90;;
44026;SDS011;29696;55.698;37.460;2023-04-24T04:58:23;17.90;;;7.15;;
44026;SDS011;29696;55.698;37.460;2023-04-24T05:00:54;20.08;;;7.55;;
44026;SDS011;29696;55.698;37.460;2023-04-24T05:03:29;14.45;;;8.30;;
44026;SDS011;29696;55.698;37.460;2023-04-24T05:06:02;12.50;;;7.60;;
44026;SDS011;29696;55.698;37.460;2023-04-24T05:08:31;12.75;;;8.02;;
44026;SDS011;29696;55.698;37.460;2023-04-24T05:10:58;22.35;;;7.72;;
44026;SDS011;29696;55.698;37.460;2023-04-24T05:13:27;13.85;;;7.70;;
44026;SDS011;29696;55.698;37.460;2023-04-24T05:15:54;16.45;;;7.85;;
44026;SDS011;29696;55.698;37.460;2023-04-24T05:18:21;17.52;;;8.52;;
44026;SDS011;29696;55.698;37.460;2023-04-24T05:20:48;10.70;;;7.57;;
44026;SDS011;29696;55.698;37.460;2023-04-24T05:23:14;17.05;;;7.32;;
44026;SDS011;29696;55.698;37.460;2023-04-24T05:25:43;15.48;;;7.25;;
44026;SDS011;29696;55.698;37.460;2023-04-24T05:28:12;17.83;;;8.05;;
44026;SDS011;29696;55.698;37.460;2023-04-24T05:30:38;13.23;;;7.07;;
44026;SDS011;29696;55.698;37.460;2023-04-24T05:33:06;20.35;;;7.00;;
44026;SDS011;29696;55.698;37.460;2023-04-24T05:35:35;20.25;;;7.07;;
44026;SDS011;29696;55.698;37.460;2023-04-24T05:38:02;13.35;;;6.28;;
44026;SDS011;29696;55.698;37.460;2023-04-24T05:40:28;21.73;;;7.93;;
44026;SDS011;29696;55.698;37.460;2023-04-24T05:42:55;21.33;;;6.63;;
44026;SDS011;29696;55.698;37.460;2023-04-24T05:45:23;31.05;;;8.48;;
44026;SDS011;29696;55.698;37.460;2023-04-24T05:47:51;18.88;;;8.57;;
44026;SDS011;29696;55.698;37.460;2023-04-24T05:50:18;15.55;;;7.50;;
44026;SDS011;29696;55.698;37.460;2023-04-24T05:52:46;17.27;;;7.85;;
44026;SDS011;29696;55.698;37.460;2023-04-24T05:55:24;16.42;;;7.80;;
44026;SDS011;29696;55.698;37.460;2023-04-24T05:57:52;17.73;;;7.93;;
44026;SDS011;29696;55.698;37.460;2023-04-24T06:00:19;13.18;;;6.95;;
44026;SDS011;29696;55.698;37.460;2023-04-24T06:02:52;11.93;;;6.40;;
44026;SDS011;29696;55.698;37.460;2023-04-24T06:05:21;10.88;;;6.70;;
44026;SDS011;29696;55.698;37.460;2023-04-24T06:07:47;13.20;;;7.25;;
44026;SDS011;29696;55.698;37.460;2023-04-24T06:10:14;20.65;;;7.30;;
44026;SDS011;29696;55.698;37.460;2023-04-24T06:12:43;34.03;;;8.65;;
44026;SDS011;29696;55.698;37.460;2023-04-24T06:15:16;19.40;;;7.93;;
44026;SDS011;29696;55.698;37.460;2023-04-24T06:18:08;17.15;;;7.97;;
44026;SDS011;29696;55.698;37.460;2023-04-24T06:20:37;14.93;;;6.97;;
44026;SDS011;29696;55.698;37.460;2023-04-24T06:23:04;13.98;;;5.88;;
44026;SDS011;29696;55.698;37.460;2023-04-24T06:25:32;10.57;;;6.47;;
44026;SDS011;29696;55.698;37.460;2023-04-24T06:27:59;13.35;;;6.25;;
44026;SDS011;29696;55.698;37.460;2023-04-24T06:30:25;17.00;;;7.38;;
44026;SDS011;29696;55.698;37.460;2023-04-24T06:32:53;10.27;;;5.80;;
44026;SDS011;29696;55.698;37.460;2023-04-24T06:35:20;18.58;;;6.53;;
44026;SDS011;29696;55.698;37.460;2023-04-24T06:37:46;13.35;;;6.80;;
44026;SDS011;29696;55.698;37.460;2023-04-24T06:40:13;9.18;;;6.03;;
44026;SDS011;29696;55.698;37.460;2023-04-24T06:42:39;23.95;;;6.78;;
44026;SDS011;29696;55.698;37.460;2023-04-24T06:45:08;13.95;;;7.97;;
44026;SDS011;29696;55.698;37.460;2023-04-24T06:47:35;9.10;;;5.38;;
44026;SDS011;29696;55.698;37.460;2023-04-24T06:50:01;16.45;;;5.95;;
44026;SDS011;29696;55.698;37.460;2023-04-24T06:52:30;12.50;;;6.63;;
44026;SDS011;29696;55.698;37.460;2023-04-24T06:55:02;19.33;;;6.60;;
44026;SDS011;29696;55.698;37.460;2023-04-24T06:57:32;16.02;;;5.88;;
44026;SDS011;29696;55.698;37.460;2023-04-24T06:59:58;14.27;;;5.57;;
44026;SDS011;29696;55.698;37.460;2023-04-24T07:02:25;8.68;;;5.05;;
44026;SDS011;29696;55.698;37.460;2023-04-24T07:04:51;6.60;;;4.80;;
44026;SDS011;29696;55.698;37.460;2023-04-24T07:07:18;13.15;;;6.43;;
44026;SDS011;29696;55.698;37.460;2023-04-24T07:09:45;10.70;;;5.57;;
44026;SDS011;29696;55.698;37.460;2023-04-24T07:12:11;16.33;;;6.53;;
44026;SDS011;29696;55.698;37.460;2023-04-24T07:14:38;10.82;;;5.60;;
44026;SDS011;29696;55.698;37.460;2023-04-24T07:17:04;12.55;;;6.30;;
44026;SDS011;29696;55.698;37.460;2023-04-24T07:19:35;15.30;;;7.82;;
44026;SDS011;29696;55.698;37.460;2023-04-24T07:22:01;14.70;;;6.38;;
44026;SDS011;29696;55.698;37.460;2023-04-24T07:24:29;22.65;;;6.45;;
44026;SDS011;29696;55.698;37.460;2023-04-24T07:26:58;7.32;;;4.68;;
44026;SDS011;29696;55.698;37.460;2023-04-24T07:29:25;11.38;;;6.03;;
44026;SDS011;29696;55.698;37.460;2023-04-24T07:31:51;11.60;;;4.90;;
44026;SDS011;29696;55.698;37.460;2023-04-24T07:34:18;7.97;;;5.43;;
44026;SDS011;29696;55.698;37.460;2023-04-24T07:36:44;14.93;;;6.63;;
44026;SDS011;29696;55.698;37.460;2023-04-24T07:39:11;11.95;;;5.00;;
44026;SDS011;29696;55.698;37.460;2023-04-24T07:41:38;21.95;;;6.60;;
44026;SDS011;29696;55.698;37.460;2023-04-24T07:44:04;7.80;;;5.50;;
44026;SDS011;29696;55.698;37.460;2023-04-24T07:46:31;8.45;;;4.85;;
44026;SDS011;29696;55.698;37.460;2023-04-24T07:48:58;6.97;;;4.43;;
44026;SDS011;29696;55.698;37.460;2023-04-24T07:51:26;13.90;;;5.10;;
44026;SDS011;29696;55.698;37.460;2023-04-24T07:53:53;10.65;;;5.88;;
44026;SDS011;29696;55.698;37.460;2023-04-24T07:56:22;15.00;;;6.65;;
44026;SDS011;29696;55.698;37.460;2023-04-24T07:58:49;11.25;;;5.88;;
44026;SDS011;29696;55.698;37.460;2023-04-24T08:01:16;6.32;;;4.65;;
44026;SDS011;29696;55.698;37.460;2023-04-24T08:03:42;6.15;;;3.60;;
44026;SDS011;29696;55.698;37.460;2023-04-24T08:06:08;4.85;;;3.85;;
44026;SDS011;29696;55.698;37.460;2023-04-24T08:08:35;6.78;;;5.40;;
44026;SDS011;29696;55.698;37.460;2023-04-24T08:11:02;5.20;;;4.47;;
44026;SDS011;29696;55.698;37.460;2023-04-24T08:13:28;8.93;;;6.07;;
44026;SDS011;29696;55.698;37.460;2023-04-24T08:15:56;4.95;;;3.78;;
44026;SDS011;29696;55.698;37.460;2023-04-24T08:18:22;8.98;;;4.90;;
44026;SDS011;29696;55.698;37.460;2023-04-24T08:20:49;11.35;;;5.30;;
44026;SDS011;29696;55.698;37.460;2023-04-24T08:23:15;15.40;;;4.13;;
44026;SDS011;29696;55.698;37.460;2023-04-24T08:25:41;7.65;;;4.97;;
44026;SDS011;29696;55.698;37.460;2023-04-24T08:28:08;7.32;;;4.50;;
44026;SDS011;29696;55.698;37.460;2023-04-24T08:30:36;11.02;;;4.82;;
44026;SDS011;29696;55.698;37.460;2023-04-24T08:33:04;8.10;;;4.90;;
44026;SDS011;29696;55.698;37.460;2023-04-24T08:35:30;11.63;;;4.88;;
44026;SDS011;29696;55.698;37.460;2023-04-24T08:37:57;12.98;;;5.60;;
44026;SDS011;29696;55.698;37.460;2023-04-24T08:40:27;12.15;;;5.13;;
44026;SDS011;29696;55.698;37.460;2023-04-24T08:42:57;7.70;;;4.55;;
44026;SDS011;29696;55.698;37.460;2023-04-24T08:45:25;11.25;;;4.80;;
44026;SDS011;29696;55.698;37.460;2023-04-24T08:47:52;18.15;;;6.13;;
44026;SDS011;29696;55.698;37.460;2023-04-24T08:50:22;14.05;;;5.30;;
44026;SDS011;29696;55.698;37.460;2023-04-24T08:52:49;13.07;;;5.35;;
44026;SDS011;29696;55.698;37.460;2023-04-24T08:55:16;13.55;;;5.90;;
44026;SDS011;29696;55.698;37.460;2023-04-24T08:57:45;8.07;;;5.00;;
44026;SDS011;29696;55.698;37.460;2023-04-24T09:00:17;10.82;;;4.78;;
44026;SDS011;29696;55.698;37.460;2023-04-24T09:02:46;8.02;;;4.43;;
44026;SDS011;29696;55.698;37.460;2023-04-24T09:05:16;6.82;;;4.25;;
44026;SDS011;29696;55.698;37.460;2023-04-24T09:07:45;9.10;;;5.28;;
44026;SDS011;29696;55.698;37.460;2023-04-24T09:10:15;6.88;;;4.85;;
44026;SDS011;29696;55.698;37.460;2023-04-24T09:12:42;11.65;;;4.47;;
44026;SDS011;29696;55.698;37.460;2023-04-24T09:15:10;7.20;;;5.38;;
44026;SDS011;29696;55.698;37.460;2023-04-24T09:17:37;11.32;;;5.63;;
44026;SDS011;29696;55.698;37.460;2023-04-24T09:20:04;5.55;;;4.55;;
44026;SDS011;29696;55.698;37.460;2023-04-24T09:22:31;6.57;;;4.45;;
44026;SDS011;29696;55.698;37.460;2023-04-24T09:25:04;9.05;;;4.50;;
44026;SDS011;29696;55.698;37.460;2023-04-24T09:27:33;9.05;;;4.43;;
44026;SDS011;29696;55.698;37.460;2023-04-24T09:30:00;6.47;;;4.68;;
44026;SDS011;29696;55.698;37.460;2023-04-24T09:32:32;7.15;;;4.75;;
44026;SDS011;29696;55.698;37.460;2023-04-24T09:35:32;14.32;;;5.63;;
44026;SDS011;29696;55.698;37.460;2023-04-24T09:37:51;8.00;;;4.47;;
44026;SDS011;29696;55.698;37.460;2023-04-24T09:40:18;12.18;;;5.03;;
44026;SDS011;29696;55.698;37.460;2023-04-24T09:42:51;9.43;;;5.65;;
44026;SDS011;29696;55.698;37.460;2023-04-24T09:45:19;9.25;;;4.90;;
44026;SDS011;29696;55.698;37.460;2023-04-24T09:47:46;6.97;;;4.85;;
44026;SDS011;29696;55.698;37.460;2023-04-24T09:50:17;7.47;;;5.05;;
44026;SDS011;29696;55.698;37.460;2023-04-24T09:52:46;8.13;;;3.92;;
44026;SDS011;29696;55.698;37.460;2023-04-24T09:55:21;6.93;;;4.90;;
44026;SDS011;29696;55.698;37.460;2023-04-24T10:00:35;6.45;;;4.45;;
44026;SDS011;29696;55.698;37.460;2023-04-24T10:03:02;8.18;;;4.43;;
44026;SDS011;29696;55.698;37.460;2023-04-24T10:05:34;8.63;;;4.93;;
44026;SDS011;29696;55.698;37.460;2023-04-24T10:08:07;5.88;;;4.22;;
44026;SDS011;29696;55.698;37.460;2023-04-24T10:10:35;8.43;;;4.22;;
44026;SDS011;29696;55.698;37.460;2023-04-24T10:13:04;6.22;;;4.72;;
44026;SDS011;29696;55.698;37.460;2023-04-24T10:15:32;8.75;;;4.15;;
44026;SDS011;29696;55.698;37.460;2023-04-24T10:17:59;4.68;;;4.18;;
44026;SDS011;29696;55.698;37.460;2023-04-24T10:20:26;6.93;;;5.90;;
44026;SDS011;29696;55.698;37.460;2023-04-24T10:22:57;5.85;;;3.78;;
44026;SDS011;29696;55.698;37.460;2023-04-24T10:25:28;6.35;;;3.95;;
44026;SDS011;29696;55.698;37.460;2023-04-24T10:27:56;5.43;;;4.28;;
44026;SDS011;29696;55.698;37.460;2023-04-24T10:30:31;5.43;;;3.90;;
44026;SDS011;29696;55.698;37.460;2023-04-24T10:33:03;10.68;;;4.25;;
44026;SDS011;29696;55.698;37.460;2023-04-24T10:35:31;5.15;;;3.80;;
44026;SDS011;29696;55.698;37.460;2023-04-24T10:38:06;7.88;;;3.58;;
44026;SDS011;29696;55.698;37.460;2023-04-24T10:40:37;7.85;;;3.72;;
44026;SDS011;29696;55.698;37.460;2023-04-24T10:43:04;6.32;;;4.18;;
44026;SDS011;29696;55.698;37.460;2023-04-24T10:45:34;8.35;;;4.13;;
44026;SDS011;29696;55.698;37.460;2023-04-24T10:48:01;9.80;;;5.03;;
44026;SDS011;29696;55.698;37.460;2023-04-24T10:50:46;6.50;;;4.72;;
44026;SDS011;29696;55.698;37.460;2023-04-24T10:53:18;6.35;;;4.82;;
44026;SDS011;29696;55.698;37.460;2023-04-24T10:56:21;10.65;;;5.82;;
44026;SDS011;29696;55.698;37.460;2023-04-24T10:58:49;10.70;;;5.60;;
44026;SDS011;29696;55.698;37.460;2023-04-24T11:01:31;7.82;;;4.20;;
44026;SDS011;29696;55.698;37.460;2023-04-24T11:03:59;4.65;;;3.70;;
44026;SDS011;29696;55.698;37.460;2023-04-24T11:09:18;7.40;;;4.20;;
44026;SDS011;29696;55.698;37.460;2023-04-24T11:11:47;9.73;;;4.53;;
44026;SDS011;29696;55.698;37.460;2023-04-24T11:14:16;5.68;;;4.97;;
44026;SDS011;29696;55.698;37.460;2023-04-24T11:16:51;6.93;;;3.60;;
44026;SDS011;29696;55.698;37.460;2023-04-24T11:19:20;6.13;;;4.38;;
44026;SDS011;29696;55.698;37.460;2023-04-24T11:21:54;5.07;;;3.80;;
44026;SDS011;29696;55.698;37.460;2023-04-24T11:27:39;12.52;;;5.03;;
44026;SDS011;29696;55.698;37.460;2023-04-24T11:30:08;13.32;;;5.13;;
44026;SDS011;29696;55.698;37.460;2023-04-24T11:32:37;4.38;;;3.97;;
44026;SDS011;29696;55.698;37.460;2023-04-24T11:35:24;10.35;;;4.93;;
44026;SDS011;29696;55.698;37.460;2023-04-24T11:37:53;11.85;;;4.50;;
44026;SDS011;29696;55.698;37.460;2023-04-24T11:40:22;7.40;;;4.65;;
44026;SDS011;29696;55.698;37.460;2023-04-24T11:42:50;5.53;;;4.47;;
44026;SDS011;29696;55.698;37.460;2023-04-24T11:45:21;11.85;;;6.45;;
44026;SDS011;29696;55.698;37.460;2023-04-24T11:47:50;15.20;;;4.80;;
44026;SDS011;29696;55.698;37.460;2023-04-24T11:50:17;14.88;;;5.38;;
44026;SDS011;29696;55.698;37.460;2023-04-24T11:52:46;16.05;;;5.05;;
44026;SDS011;29696;55.698;37.460;2023-04-24T11:58:01;11.15;;;4.82;;
44026;SDS011;29696;55.698;37.460;2023-04-24T12:00:31;8.52;;;4.95;;
44026;SDS011;29696;55.698;37.460;2023-04-24T12:03:10;17.80;;;4.63;;
44026;SDS011;29696;55.698;37.460;2023-04-24T12:05:38;9.65;;;4.78;;
44026;SDS011;29696;55.698;37.460;2023-04-24T12:08:05;15.50;;;5.63;;
44026;SDS011;29696;55.698;37.460;2023-04-24T12:10:32;6.63;;;4.32;;
44026;SDS011;29696;55.698;37.460;2023-04-24T12:12:59;5.45;;;3.67;;
44026;SDS011;29696;55.698;37.460;2023-04-24T12:15:26;8.70;;;3.85;;
44026;SDS011;29696;55.698;37.460;2023-04-24T12:17:54;9.57;;;5.43;;
44026;SDS011;29696;55.698;37.460;2023-04-24T12:20:28;7.85;;;4.40;;
44026;SDS011;29696;55.698;37.460;2023-04-24T12:22:57;12.73;;;5.43;;
44026;SDS011;29696;55.698;37.460;2023-04-24T12:25:25;7.78;;;4.30;;
44026;SDS011;29696;55.698;37.460;2023-04-24T12:28:14;5.55;;;3.47;;
44026;SDS011;29696;55.698;37.460;2023-04-24T12:30:42;8.48;;;4.38;;
44026;SDS011;29696;55.698;37.460;2023-04-24T12:33:20;4.95;;;3.88;;
44026;SDS011;29696;55.698;37.460;2023-04-24T12:35:48;9.52;;;5.95;;
44026;SDS011;29696;55.698;37.460;2023-04-24T12:38:22;10.82;;;5.75;;
44026;SDS011;29696;55.698;37.460;2023-04-24T12:41:01;15.30;;;5.22;;
44026;SDS011;29696;55.698;37.460;2023-04-24T12:43:31;14.07;;;5.45;;
44026;SDS011;29696;55.698;37.460;2023-04-24T12:45:59;16.70;;;5.97;;
44026;SDS011;29696;55.698;37.460;2023-04-24T12:48:25;13.90;;;4.90;;
44026;SDS011;29696;55.698;37.460;2023-04-24T12:50:52;18.17;;;5.78;;
44026;SDS011;29696;55.698;37.460;2023-04-24T12:53:19;6.00;;;3.78;;
44026;SDS011;29696;55.698;37.460;2023-04-24T12:55:46;4.57;;;3.60;;
44026;SDS011;29696;55.698;37.460;2023-04-24T12:58:20;5.88;;;4.07;;
44026;SDS011;29696;55.698;37.460;2023-04-24T13:00:47;6.25;;;3.17;;
44026;SDS011;29696;55.698;37.460;2023-04-24T13:03:14;6.03;;;4.35;;
44026;SDS011;29696;55.698;37.460;2023-04-24T13:05:41;8.45;;;3.72;;
44026;SDS011;29696;55.698;37.460;2023-04-24T13:08:09;6.50;;;3.75;;
44026;SDS011;29696;55.698;37.460;2023-04-24T13:10:35;5.70;;;3.72;;
44026;SDS011;29696;55.698;37.460;2023-04-24T13:13:02;8.77;;;4.15;;
44026;SDS011;29696;55.698;37.460;2023-04-24T13:15:29;8.90;;;4.80;;
44026;SDS011;29696;55.698;37.460;2023-04-24T13:17:55;17.13;;;4.82;;
44026;SDS011;29696;55.698;37.460;2023-04-24T13:20:22;8.00;;;4.63;;
44026;SDS011;29696;55.698;37.460;2023-04-24T13:22:48;9.10;;;4.75;;
44026;SDS011;29696;55.698;37.460;2023-04-24T13:25:15;11.00;;;4.90;;
44026;SDS011;29696;55.698;37.460;2023-04-24T13:27:43;12.20;;;4.82;;
44026;SDS011;29696;55.698;37.460;2023-04-24T13:30:09;13.05;;;5.03;;
44026;SDS011;29696;55.698;37.460;2023-04-24T13:32:36;7.03;;;4.63;;
44026;SDS011;29696;55.698;37.460;2023-04-24T13:35:03;6.38;;;4.45;;
44026;SDS011;29696;55.698;37.460;2023-04-24T13:37:32;14.15;;;5.03;;
44026;SDS011;29696;55.698;37.460;2023-04-24T13:39:58;7.55;;;5.20;;
44026;SDS011;29696;55.698;37.460;2023-04-24T13:42:25;8.45;;;4.47;;
44026;SDS011;29696;55.698;37.460;2023-04-24T13:44:51;8.50;;;4.57;;
44026;SDS011;29696;55.698;37.460;2023-04-24T13:47:18;7.22;;;4.53;;
44026;SDS011;29696;55.698;37.460;2023-04-24T13:49:44;10.73;;;4.82;;
44026;SDS011;29696;55.698;37.460;2023-04-24T13:52:11;9.85;;;4.20;;
44026;SDS011;29696;55.698;37.460;2023-04-24T13:54:37;11.88;;;3.40;;
44026;SDS011;29696;55.698;37.460;2023-04-24T13:57:04;13.20;;;3.50;;
44026;SDS011;29696;55.698;37.460;2023-04-24T13:59:30;6.70;;;4.03;;
44026;SDS011;29696;55.698;37.460;2023-04-24T14:01:57;12.35;;;4.38;;
44026;SDS011;29696;55.698;37.460;2023-04-24T14:04:23;9.02;;;3.97;;
44026;SDS011;29696;55.698;37.460;2023-04-24T14:06:49;10.95;;;5.45;;
44026;SDS011;29696;55.698;37.460;2023-04-24T14:09:16;12.50;;;6.00;;
44026;SDS011;29696;55.698;37.460;2023-04-24T14:11:42;12.57;;;5.28;;
44026;SDS011;29696;55.698;37.460;2023-04-24T14:14:09;17.85;;;4.95;;
44026;SDS011;29696;55.698;37.460;2023-04-24T14:16:36;31.23;;;5.75;;
44026;SDS011;29696;55.698;37.460;2023-04-24T14:19:02;14.00;;;6.43;;
44026;SDS011;29696;55.698;37.460;2023-04-24T14:21:29;15.07;;;6.63;;
44026;SDS011;29696;55.698;37.460;2023-04-24T14:23:56;12.45;;;5.43;;
44026;SDS011;29696;55.698;37.460;2023-04-24T14:26:22;19.00;;;5.90;;
44026;SDS011;29696;55.698;37.460;2023-04-24T14:28:50;14.88;;;6.05;;
44026;SDS011;29696;55.698;37.460;2023-04-24T14:31:16;11.63;;;5.82;;
44026;SDS011;29696;55.698;37.460;2023-04-24T14:33:43;27.73;;;5.40;;
44026;SDS011;29696;55.698;37.460;2023-04-24T14:36:09;8.32;;;5.25;;
44026;SDS011;29696;55.698;37.460;2023-04-24T14:38:36;9.15;;;4.20;;
44026;SDS011;29696;55.698;37.460;2023-04-24T14:41:02;9.40;;;4.88;;
44026;SDS011;29696;55.698;37.460;2023-04-24T14:43:35;11.95;;;5.03;;